Time;durP1;ratioP1;P1;durP2;ratioP2;P2;SDS_P1;SDS_P2;PMS_P1;PMS_P2;Temp;Humidity;BMP_temperature;BMP_pressure;BME280_temperature;BME280_humidity;BME280_pressure;Samples;Min_cycle;Max_cycle;Signal;HPM_P1;HPM_P2
2021/03/21 00:02:15;;;;;;;10.67;7.20;;;;;;;-6.27;82.59;100111.56;5020214;28;20683;-94
2021/03/21 00:05:04;;;;;;;10.00;7.70;;;;;;;-6.22;82.65;100126.91;5026176;28;20221;-95
2021/03/21 00:07:41;;;;;;;11.17;8.00;;;;;;;-6.17;82.77;100138.69;5055582;28;20232;-93
2021/03/21 00:10:24;;;;;;;11.23;8.00;;;;;;;-6.19;83.12;100121.47;5039377;28;20225;-94
2021/03/21 00:13:10;;;;;;;11.83;8.30;;;;;;;-6.35;82.93;100112.06;5040289;28;20427;-95
2021/03/21 00:15:52;;;;;;;11.43;7.87;;;;;;;-6.22;83.01;100132.13;5029673;28;20230;-93
2021/03/21 00:18:33;;;;;;;11.43;7.80;;;;;;;-6.22;83.31;100137.34;5002615;28;20629;-94
2021/03/21 00:21:24;;;;;;;11.00;7.83;;;;;;;-6.32;83.52;100111.88;5016883;28;20309;-93
2021/03/21 00:24:11;;;;;;;12.73;7.93;;;;;;;-6.40;83.47;100110.69;5025780;28;20252;-94
2021/03/21 00:26:55;;;;;;;10.93;7.67;;;;;;;-6.46;83.39;100101.50;5039481;28;20229;-91
2021/03/21 00:29:37;;;;;;;12.43;8.20;;;;;;;-6.39;84.21;100126.22;5056182;28;20229;-96
2021/03/21 00:32:24;;;;;;;14.70;7.87;;;;;;;-6.28;84.18;100125.53;5020327;28;20226;-95
2021/03/21 00:35:04;;;;;;;12.10;7.70;;;;;;;-6.37;83.56;100115.69;5020988;28;20221;-94
2021/03/21 00:37:43;;;;;;;13.87;8.47;;;;;;;-6.45;83.90;100111.00;5019663;28;20234;-94
2021/03/21 00:40:22;;;;;;;12.43;8.13;;;;;;;-6.43;84.44;100108.28;5003101;28;20256;-95
2021/03/21 00:43:06;;;;;;;10.93;8.17;;;;;;;-6.54;84.32;100082.09;5003376;28;20267;-91
2021/03/21 00:45:47;;;;;;;12.40;8.30;;;;;;;-6.50;84.30;100096.59;5019545;28;20596;-94
2021/03/21 00:48:34;;;;;;;11.90;7.90;;;;;;;-6.81;84.81;100053.47;5034342;28;20230;-95
2021/03/21 00:51:13;;;;;;;12.60;8.53;;;;;;;-6.58;85.02;100078.84;5035961;28;20221;-95
2021/03/21 00:53:59;;;;;;;12.07;8.47;;;;;;;-6.62;84.39;100082.56;5020351;28;20230;-95
2021/03/21 00:56:45;;;;;;;13.83;7.43;;;;;;;-6.53;85.19;100091.59;5010682;28;20226;-93
2021/03/21 00:59:38;;;;;;;13.23;8.20;;;;;;;-6.61;85.03;100073.00;5036090;28;20226;-95
2021/03/21 01:02:29;;;;;;;10.37;7.97;;;;;;;-6.68;84.72;100081.22;5052075;28;20637;-95
2021/03/21 01:05:18;;;;;;;11.40;8.20;;;;;;;-6.70;85.36;100074.44;5037771;28;20227;-95
2021/03/21 01:08:00;;;;;;;11.60;8.27;;;;;;;-6.69;84.95;100074.34;5036067;28;20232;-95
2021/03/21 01:10:45;;;;;;;11.30;8.30;;;;;;;-6.72;85.38;100069.31;5034863;28;20225;-90
2021/03/21 01:13:36;;;;;;;11.63;8.13;;;;;;;-6.74;85.81;100067.75;5019869;28;20218;-93
2021/03/21 01:16:26;;;;;;;13.20;8.40;;;;;;;-6.82;86.02;100062.22;5026344;28;20312;-94
2021/03/21 01:19:16;;;;;;;13.23;8.67;;;;;;;-6.85;85.92;100059.78;5040004;28;20343;-91
2021/03/21 01:22:02;;;;;;;15.00;9.57;;;;;;;-7.23;85.81;100002.38;5044844;28;20252;-92
2021/03/21 01:24:40;;;;;;;15.70;9.53;;;;;;;-6.90;86.04;100061.84;5035212;28;20222;-91
2021/03/21 01:27:28;;;;;;;13.73;8.70;;;;;;;-6.84;86.05;100061.47;5048728;28;20237;-96
2021/03/21 01:30:10;;;;;;;13.00;8.67;;;;;;;-6.94;86.28;100036.94;5055116;28;20233;-94
2021/03/21 01:32:49;;;;;;;13.67;8.20;;;;;;;-6.91;86.38;100044.56;5022408;28;20545;-95
2021/03/21 01:35:31;;;;;;;12.20;8.27;;;;;;;-6.99;86.57;100029.41;5034385;28;20226;-95
2021/03/21 01:38:07;;;;;;;11.73;8.20;;;;;;;-7.31;85.89;99978.56;5052688;28;20235;-96
2021/03/21 01:40:56;;;;;;;12.37;8.00;;;;;;;-6.90;85.81;100039.25;5041889;28;20710;-94
2021/03/21 01:43:45;;;;;;;14.40;7.90;;;;;;;-6.98;85.52;100032.84;5009625;28;20229;-94
2021/03/21 01:47:01;;;;;;;10.50;8.10;;;;;;;-7.01;86.49;100038.28;5030242;28;20227;-90
2021/03/21 01:49:54;;;;;;;11.10;7.83;;;;;;;-7.07;86.80;100034.28;5014715;28;20233;-91
2021/03/21 01:52:46;;;;;;;9.93;7.03;;;;;;;-7.07;86.41;100017.81;5045403;28;20245;-92
2021/03/21 01:55:33;;;;;;;13.60;8.23;;;;;;;-7.08;86.91;100023.97;5023458;28;20249;-94
2021/03/21 01:58:27;;;;;;;10.43;7.53;;;;;;;-7.06;86.65;100019.50;5024471;28;20225;-95
2021/03/21 02:01:18;;;;;;;10.70;7.77;;;;;;;-6.97;86.77;100011.09;5043084;28;20225;-89
2021/03/21 02:04:05;;;;;;;9.83;7.43;;;;;;;-7.20;86.97;99969.16;5036943;28;20252;-92
2021/03/21 02:07:14;;;;;;;12.77;8.23;;;;;;;-6.87;86.72;100014.78;5022539;28;20249;-94
2021/03/21 02:10:13;;;;;;;10.67;7.43;;;;;;;-6.83;87.13;100022.28;5043105;28;20236;-95
2021/03/21 02:13:10;;;;;;;11.63;7.70;;;;;;;-6.87;87.63;100013.00;5045002;28;20233;-95
2021/03/21 02:16:05;;;;;;;10.83;7.87;;;;;;;-6.85;87.24;100008.50;5038095;28;20305;-94
2021/03/21 02:19:11;;;;;;;13.20;7.50;;;;;;;-6.80;86.87;100013.41;5037463;28;20245;-93
2021/03/21 02:22:01;;;;;;;12.63;8.13;;;;;;;-7.16;86.67;99975.84;5055828;28;20288;-92
2021/03/21 02:25:18;;;;;;;12.83;8.00;;;;;;;-6.94;87.01;99995.25;5022439;28;20504;-93
2021/03/21 02:28:20;;;;;;;11.07;7.57;;;;;;;-7.04;86.69;99996.78;5021227;28;20229;-95
2021/03/21 02:31:08;;;;;;;11.80;7.80;;;;;;;-7.10;86.83;100003.25;5041756;28;20225;-95
2021/03/21 02:34:06;;;;;;;11.57;7.57;;;;;;;-7.25;86.37;99972.97;5025565;28;20222;-95
2021/03/21 02:37:13;;;;;;;12.03;7.77;;;;;;;-7.24;86.65;99985.91;5022660;28;20252;-93
2021/03/21 02:40:41;;;;;;;10.30;7.67;;;;;;;-7.18;87.12;99987.25;5037297;28;20229;-93
2021/03/21 02:43:35;;;;;;;11.03;7.50;;;;;;;-7.28;86.98;99989.63;5037190;28;20301;-91
2021/03/21 02:46:37;;;;;;;13.70;8.10;;;;;;;-7.32;87.47;99972.53;5005188;28;20226;-95
2021/03/21 02:49:34;;;;;;;10.80;7.40;;;;;;;-7.56;87.34;99938.50;5037670;28;20296;-92
2021/03/21 02:52:37;;;;;;;10.60;7.33;;;;;;;-7.31;87.09;99974.22;5052939;28;20243;-91
2021/03/21 02:55:48;;;;;;;10.67;7.40;;;;;;;-7.31;87.39;99973.38;5023143;28;20614;-93
2021/03/21 02:58:41;;;;;;;11.63;7.67;;;;;;;-7.36;86.81;99968.47;5047312;28;20225;-94
2021/03/21 03:01:41;;;;;;;12.73;7.73;;;;;;;-7.49;87.59;99946.75;5056648;28;20702;-93
2021/03/21 03:04:55;;;;;;;12.00;7.97;;;;;;;-7.37;87.78;99961.56;5039597;28;20218;-94
2021/03/21 03:07:58;;;;;;;13.43;8.10;;;;;;;-7.41;87.88;99951.47;5025108;28;20226;-93
2021/03/21 03:11:17;;;;;;;10.73;7.77;;;;;;;-7.36;87.90;99954.59;5054589;28;20253;-95
2021/03/21 03:14:04;;;;;;;10.53;7.27;;;;;;;-7.46;87.86;99943.94;5043930;28;20506;-90
2021/03/21 03:17:19;;;;;;;11.10;7.90;;;;;;;-7.47;88.18;99937.09;5021191;28;20568;-93
2021/03/21 03:20:39;;;;;;;11.73;7.87;;;;;;;-7.48;88.04;99934.59;5036771;28;20226;-89
2021/03/21 03:24:11;;;;;;;11.87;7.87;;;;;;;-7.57;88.27;99930.81;5023883;28;20218;-92
2021/03/21 03:27:23;;;;;;;11.37;8.50;;;;;;;-7.84;88.66;99893.53;5020856;28;20237;-93
2021/03/21 03:31:11;;;;;;;10.03;7.43;;;;;;;-7.64;88.87;99926.91;5034513;28;20226;-94
2021/03/21 03:34:20;;;;;;;13.60;8.60;;;;;;;-7.78;88.65;99912.19;5047299;28;20217;-94
2021/03/21 03:37:12;;;;;;;12.57;8.33;;;;;;;-7.82;89.12;99904.66;5042988;28;20249;-91
2021/03/21 03:48:36;;;;;;;11.43;7.70;;;;;;;-7.85;88.64;99907.47;5063427;28;20217;-94
2021/03/21 03:52:37;;;;;;;12.80;7.97;;;;;;;-7.91;88.80;99897.44;5065886;28;20308;-91
2021/03/21 03:56:52;;;;;;;13.17;7.43;;;;;;;-7.97;89.41;99901.25;5063880;28;20304;-92
2021/03/21 04:01:19;;;;;;;11.70;7.67;;;;;;;-7.97;89.88;99890.84;5044451;28;20586;-93
2021/03/21 04:05:11;;;;;;;10.60;7.63;;;;;;;-8.01;90.17;99886.78;5029798;28;20674;-87
2021/03/21 04:09:10;;;;;;;11.97;7.70;;;;;;;-8.04;90.56;99882.63;5017864;28;20229;-93
2021/03/21 04:13:14;;;;;;;13.87;8.67;;;;;;;-8.18;90.40;99863.63;5071935;28;20228;-90
2021/03/21 04:21:47;;;;;;;10.80;7.60;;;;;;;-8.66;90.59;99805.16;5254928;22;20249;-80
2021/03/21 04:25:45;;;;;;;14.93;9.10;;;;;;;-8.38;90.04;99854.50;5090963;22;20220;-80
2021/03/21 04:29:56;;;;;;;15.03;9.73;;;;;;;-8.62;90.65;99804.03;5075532;28;20203;-80
2021/03/21 04:34:20;;;;;;;15.70;9.23;;;;;;;-8.30;91.61;99848.81;5077324;28;20229;-84
2021/03/21 04:38:14;;;;;;;11.90;9.20;;;;;;;-8.31;90.96;99832.41;5067250;28;20237;-80
2021/03/21 04:42:43;;;;;;;14.30;9.37;;;;;;;-8.48;91.07;99793.63;4997469;28;20204;-87
2021/03/21 04:46:36;;;;;;;17.83;10.83;;;;;;;-8.18;91.18;99838.47;4972115;28;20466;-86
2021/03/21 04:50:37;;;;;;;16.23;10.30;;;;;;;-8.11;90.98;99829.34;4979222;28;20276;-81
2021/03/21 04:54:11;;;;;;;12.77;8.60;;;;;;;-8.04;90.65;99830.63;4997171;28;20218;-84
2021/03/21 04:58:02;;;;;;;12.03;8.00;;;;;;;-7.91;90.38;99829.84;4984649;28;20227;-88
2021/03/21 05:01:56;;;;;;;12.90;8.37;;;;;;;-7.83;89.52;99825.78;4982937;28;20200;-90
2021/03/21 05:06:19;;;;;;;12.17;7.70;;;;;;;-7.75;89.40;99820.13;4995505;28;20330;-92
2021/03/21 05:09:58;;;;;;;10.20;7.57;;;;;;;-8.11;88.74;99766.94;4989328;28;20228;-86
2021/03/21 05:13:29;;;;;;;10.17;7.07;;;;;;;-7.51;87.57;99820.28;4974326;28;20228;-88
2021/03/21 05:17:50;;;;;;;13.97;7.30;;;;;;;-7.27;86.93;99806.44;4987182;28;20267;-91
2021/03/21 05:21:25;;;;;;;9.77;6.83;;;;;;;-7.17;85.25;99802.28;5022750;28;20281;-93
2021/03/21 05:25:21;;;;;;;11.83;6.80;;;;;;;-6.91;83.58;99803.16;5062242;28;20217;-93
2021/03/21 05:28:39;;;;;;;10.23;6.87;;;;;;;-6.80;82.46;99787.59;5064619;28;20229;-91
2021/03/21 05:31:34;;;;;;;9.90;6.53;;;;;;;-6.63;81.33;99793.41;5043311;28;20259;-94
2021/03/21 05:34:29;;;;;;;11.00;6.47;;;;;;;-6.64;80.88;99768.28;5023810;28;20228;-94
2021/03/21 05:37:46;;;;;;;9.23;6.67;;;;;;;-6.32;80.27;99792.91;5048994;28;20571;-94
2021/03/21 05:41:09;;;;;;;8.17;5.97;;;;;;;-6.25;79.38;99787.13;5040736;28;20214;-94
2021/03/21 05:44:10;;;;;;;9.20;6.33;;;;;;;-6.16;78.77;99787.44;5043952;28;20275;-93
2021/03/21 05:47:00;;;;;;;9.67;5.60;;;;;;;-6.07;78.48;99782.41;5043909;28;20499;-90
2021/03/21 05:50:39;;;;;;;9.10;5.70;;;;;;;-5.89;77.46;99785.44;5038571;28;20230;-94
2021/03/21 05:53:41;;;;;;;8.53;5.70;;;;;;;-5.54;76.37;99782.78;5023899;28;20225;-91
2021/03/21 05:56:40;;;;;;;7.80;5.53;;;;;;;-5.26;74.93;99777.16;5046773;28;20312;-89
2021/03/21 05:59:58;;;;;;;7.87;5.70;;;;;;;-5.21;73.94;99717.56;5058448;28;20235;-90
2021/03/21 06:03:14;;;;;;;7.87;5.47;;;;;;;-4.44;72.47;99770.78;5043068;28;20221;-91
2021/03/21 06:06:41;;;;;;;8.47;5.60;;;;;;;-3.99;71.18;99766.25;5058250;28;20710;-95
2021/03/21 06:09:54;;;;;;;7.30;5.27;;;;;;;-3.64;68.36;99738.03;5011274;28;20300;-94
2021/03/21 06:13:00;;;;;;;7.23;5.30;;;;;;;-3.16;67.93;99754.06;5032479;28;20232;-94
2021/03/21 06:16:23;;;;;;;7.90;5.47;;;;;;;-2.87;66.87;99732.41;5053650;28;20247;-94
2021/03/21 06:19:33;;;;;;;6.90;5.00;;;;;;;-2.55;65.59;99742.72;5057575;28;20271;-92
2021/03/21 06:22:34;;;;;;;9.87;5.67;;;;;;;-2.58;64.88;99704.47;5064344;28;20232;-94
2021/03/21 06:25:27;;;;;;;7.37;5.10;;;;;;;-2.09;64.84;99745.56;5044559;28;20312;-93
2021/03/21 06:28:34;;;;;;;7.27;5.07;;;;;;;-1.90;63.79;99716.72;5015758;28;20223;-92
2021/03/21 06:31:50;;;;;;;7.37;5.20;;;;;;;-1.17;62.29;99727.56;5022267;28;20233;-94
2021/03/21 06:35:02;;;;;;;6.43;4.80;;;;;;;-0.78;61.22;99731.69;5037974;28;20229;-91
2021/03/21 06:38:22;;;;;;;8.17;5.10;;;;;;;-0.41;60.10;99729.03;5023495;28;20300;-95
2021/03/21 06:41:22;;;;;;;6.93;5.27;;;;;;;-0.25;59.73;99726.59;5036791;28;20304;-95
2021/03/21 06:44:26;;;;;;;8.00;5.40;;;;;;;-0.13;59.49;99721.91;5038596;28;20225;-92
2021/03/21 06:47:18;;;;;;;6.43;5.00;;;;;;;0.00;59.16;99715.31;5038129;28;20312;-92
2021/03/21 06:50:34;;;;;;;5.43;4.73;;;;;;;0.08;58.63;99714.56;5041150;28;20222;-95
2021/03/21 06:53:57;;;;;;;6.90;5.40;;;;;;;0.18;58.49;99709.22;5039039;28;20644;-91
2021/03/21 06:57:17;;;;;;;7.87;5.10;;;;;;;0.46;58.28;99704.69;5040588;28;20309;-91
2021/03/21 07:00:22;;;;;;;8.70;6.00;;;;;;;0.59;58.11;99694.53;5042677;28;20285;-94
2021/03/21 07:03:38;;;;;;;6.83;4.80;;;;;;;0.77;57.18;99700.59;5048304;28;20229;-86
2021/03/21 07:06:56;;;;;;;5.97;5.13;;;;;;;0.83;56.67;99692.06;5052609;28;20234;-80
2021/03/21 07:09:43;;;;;;;7.70;5.20;;;;;;;0.76;58.85;99693.66;5042222;28;20213;-80
2021/03/21 07:13:49;;;;;;;5.93;4.87;;;;;;;1.01;57.53;99695.47;5056485;28;20210;-79
2021/03/21 07:17:25;;;;;;;6.73;5.30;;;;;;;1.06;57.50;99681.81;5141975;23;20232;-79
2021/03/21 07:21:18;;;;;;;7.03;6.00;;;;;;;1.26;57.08;99686.66;5164871;23;20221;-79
2021/03/21 07:24:53;;;;;;;9.40;5.93;;;;;;;1.33;57.74;99679.78;5064470;23;20228;-79
2021/03/21 07:28:33;;;;;;;5.60;5.00;;;;;;;1.77;55.12;99674.31;5090280;23;20241;-79
2021/03/21 07:32:28;;;;;;;7.40;5.60;;;;;;;1.91;56.45;99662.28;5153896;23;20288;-81
2021/03/21 07:36:19;;;;;;;6.80;5.37;;;;;;;2.04;54.60;99659.97;5101686;23;20236;-79
2021/03/21 07:39:48;;;;;;;6.13;5.10;;;;;;;2.27;52.76;99658.31;5094625;28;20204;-78
2021/03/21 07:43:15;;;;;;;5.47;4.83;;;;;;;2.25;51.75;99657.66;5066971;22;20233;-80
2021/03/21 07:46:59;;;;;;;7.07;5.00;;;;;;;2.44;52.28;99659.13;5074131;28;20217;-80
2021/03/21 07:50:48;;;;;;;5.97;5.10;;;;;;;2.86;50.08;99658.88;4975822;28;20271;-81
2021/03/21 07:54:35;;;;;;;5.97;4.17;;;;;;;2.94;49.44;99649.09;5050479;22;20241;-79
2021/03/21 08:01:48;;;;;;;5.57;4.10;;;;;;;3.64;47.60;99643.00;5073447;22;20213;-79
2021/03/21 08:09:37;;;;;;;4.90;4.07;;;;;;;3.39;46.36;99629.06;5081465;22;20224;-80
2021/03/21 08:22:04;;;;;;;4.97;3.90;;;;;;;3.48;46.38;99614.78;4926319;28;20239;-79
2021/03/21 08:25:28;;;;;;;4.20;3.80;;;;;;;3.62;46.18;99626.44;5112123;22;20220;-79
2021/03/21 08:29:38;;;;;;;5.00;4.50;;;;;;;3.68;46.35;99609.88;5252103;22;20242;31
2021/03/21 08:33:21;;;;;;;5.60;3.97;;;;;;;2.80;48.02;99585.50;5034799;23;20580;-80
2021/03/21 08:36:41;;;;;;;5.57;4.37;;;;;;;2.95;48.22;99612.88;5069726;23;20209;-80
2021/03/21 08:44:46;;;;;;;4.40;3.63;;;;;;;3.35;48.06;99599.47;5055591;23;20231;-80
2021/03/21 08:48:25;;;;;;;5.77;3.83;;;;;;;3.30;47.73;99590.38;5237774;22;20236;-79
2021/03/21 08:56:12;;;;;;;6.47;4.03;;;;;;;3.09;48.34;99575.91;5097744;22;20296;-80
2021/03/21 09:00:04;;;;;;;4.77;3.83;;;;;;;3.19;48.65;99546.59;5068678;28;20221;-80
2021/03/21 09:03:43;;;;;;;5.67;3.97;;;;;;;3.12;48.45;99521.00;5086083;22;20263;-80
2021/03/21 09:07:22;;;;;;;4.07;3.67;;;;;;;3.51;47.59;99545.56;5085485;22;20221;-80
2021/03/21 09:10:59;;;;;;;4.80;3.80;;;;;;;3.91;46.91;99553.22;5058368;28;20229;-79
2021/03/21 09:14:32;;;;;;;4.50;3.83;;;;;;;4.74;45.87;99541.56;5073437;22;20232;-80
2021/03/21 09:18:22;;;;;;;5.80;4.17;;;;;;;5.06;44.66;99553.63;5084740;22;20220;-81
2021/03/21 09:21:52;;;;;;;4.67;4.20;;;;;;;4.95;44.53;99511.59;5082171;22;20200;-79
2021/03/21 09:26:04;;;;;;;5.30;4.27;;;;;;;5.18;44.16;99552.13;5103981;22;20595;-80
2021/03/21 09:30:30;;;;;;;4.30;3.63;;;;;;;5.29;43.88;99547.16;5096356;28;20240;-80
2021/03/21 09:33:51;;;;;;;6.17;4.00;;;;;;;5.28;44.67;99549.97;5036929;28;20230;-80
2021/03/21 09:37:58;;;;;;;4.30;3.87;;;;;;;5.14;45.61;99537.56;5038445;28;20216;-80
2021/03/21 09:41:34;;;;;;;4.03;3.67;;;;;;;5.12;46.89;99547.56;5085095;22;20209;-80
2021/03/21 09:44:40;;;;;;;4.30;3.90;;;;;;;5.16;48.01;99519.63;5050732;22;20256;-79
2021/03/21 09:47:32;;;;;;;4.50;3.83;;;;;;;5.78;46.09;99554.41;5037450;28;20222;-81
2021/03/21 09:50:54;;;;;;;3.90;3.40;;;;;;;6.09;44.86;99538.94;5063544;22;20230;-79
2021/03/21 09:54:08;;;;;;;5.33;4.20;;;;;;;6.93;42.85;99545.00;5028042;28;20236;-79
2021/03/21 10:01:30;;;;;;;5.23;3.70;;;;;;;6.99;43.61;99533.56;5078664;22;20288;-81
2021/03/21 10:04:37;;;;;;;5.23;3.87;;;;;;;7.06;43.02;99528.22;5038708;28;20312;-80
2021/03/21 10:08:14;;;;;;;4.33;3.90;;;;;;;6.77;43.17;99499.22;5075758;22;20237;-80
2021/03/21 10:11:43;;;;;;;4.33;3.20;;;;;;;5.99;45.92;99522.50;5074747;28;20248;-80
2021/03/21 10:15:20;;;;;;;3.97;3.67;;;;;;;5.94;47.26;99524.91;5046050;23;20234;-78
2021/03/21 10:19:04;;;;;;;4.03;3.50;;;;;;;5.61;49.11;99513.13;5052816;23;20242;-79
2021/03/21 10:22:19;;;;;;;3.77;3.47;;;;;;;5.55;51.25;99516.56;5054233;28;20237;-80
2021/03/21 10:25:22;;;;;;;4.37;3.80;;;;;;;5.57;52.00;99522.50;5041201;28;20229;-81
2021/03/21 10:28:03;;;;;;;4.17;3.73;;;;;;;5.37;51.36;99503.69;5027414;28;20252;-81
2021/03/21 10:31:26;;;;;;;4.47;3.80;;;;;;;5.15;55.17;99510.00;5042900;28;20263;-81
2021/03/21 10:34:13;;;;;;;5.87;4.23;;;;;;;4.98;57.59;99504.09;5038189;28;20236;-80
2021/03/21 10:37:11;;;;;;;5.53;3.97;;;;;;;4.63;58.75;99499.56;5016771;28;20225;-80
2021/03/21 10:40:14;;;;;;;7.07;4.70;;;;;;;4.10;60.50;99500.69;5046685;28;20234;-79
2021/03/21 10:43:34;;;;;;;4.43;3.83;;;;;;;3.67;61.07;99471.25;5088196;22;20255;-79
2021/03/21 10:47:02;;;;;;;4.13;3.60;;;;;;;3.78;61.74;99499.16;5065246;28;20222;-80
2021/03/21 10:50:25;;;;;;;4.60;4.10;;;;;;;3.68;61.30;99491.47;5072590;28;20201;-80
2021/03/21 10:54:00;;;;;;;5.37;4.83;;;;;;;3.65;65.14;99485.66;5033241;28;20212;-80
2021/03/21 10:56:47;;;;;;;6.20;5.00;;;;;;;3.73;65.94;99473.19;5070114;22;20237;-80
2021/03/21 10:59:42;;;;;;;5.47;4.80;;;;;;;3.76;66.32;99485.25;5042278;28;20255;-79
2021/03/21 11:03:15;;;;;;;6.73;4.93;;;;;;;3.60;68.63;99480.91;5074251;22;20239;-79
2021/03/21 11:06:09;;;;;;;9.50;6.20;;;;;;;3.59;67.73;99450.16;5034041;28;20233;-79
2021/03/21 11:09:58;;;;;;;5.93;4.50;;;;;;;3.47;67.59;99448.91;5048566;22;20238;-80
2021/03/21 11:13:21;;;;;;;4.13;3.73;;;;;;;3.60;67.04;99443.81;4989919;28;20251;-79
2021/03/21 11:16:13;;;;;;;3.93;3.50;;;;;;;3.00;66.01;99409.38;4984123;28;20311;-80
2021/03/21 11:19:32;;;;;;;5.07;4.50;;;;;;;3.12;71.25;99455.63;4971422;23;20228;-79
2021/03/21 11:23:14;;;;;;;5.47;4.97;;;;;;;2.93;73.36;99456.94;5020918;28;20598;-79
2021/03/21 11:26:27;;;;;;;5.33;4.83;;;;;;;2.63;72.05;99442.69;5065015;22;20275;-79
2021/03/21 11:29:50;;;;;;;6.73;5.27;;;;;;;2.56;74.48;99457.63;5100442;22;20236;-81
2021/03/21 11:33:31;;;;;;;8.30;6.37;;;;;;;2.53;75.38;99459.75;5068800;22;20230;-79
2021/03/21 11:36:47;;;;;;;8.87;6.83;;;;;;;2.14;77.06;99436.81;5077479;22;20268;-80
2021/03/21 11:40:02;;;;;;;8.97;6.43;;;;;;;2.22;77.97;99442.06;5234977;23;20225;-81
2021/03/21 11:43:48;;;;;;;7.03;5.67;;;;;;;2.26;76.22;99434.59;5038398;28;20206;-81
2021/03/21 11:46:58;;;;;;;7.40;5.53;;;;;;;2.26;76.95;99412.63;5061392;23;20666;-80
2021/03/21 11:50:13;;;;;;;5.33;4.83;;;;;;;2.44;77.41;99434.34;5068413;23;20232;-80
2021/03/21 11:53:30;;;;;;;5.90;4.97;;;;;;;2.45;76.41;99423.63;5058683;28;20177;-80
2021/03/21 11:56:53;;;;;;;7.57;4.77;;;;;;;2.58;77.32;99417.75;5037497;28;20284;-79
2021/03/21 12:00:24;;;;;;;6.13;5.17;;;;;;;2.46;77.82;99412.03;5051772;28;20231;-80
2021/03/21 12:03:23;;;;;;;6.63;5.93;;;;;;;2.53;77.52;99409.50;5051446;28;20246;-80
2021/03/21 12:06:38;;;;;;;6.10;5.20;;;;;;;2.41;76.50;99390.59;5139261;22;20214;-81
2021/03/21 12:09:42;;;;;;;5.67;5.07;;;;;;;2.53;76.93;99394.47;4997390;28;20209;-80
2021/03/21 12:13:19;;;;;;;6.13;4.80;;;;;;;2.52;76.88;99376.16;5017113;28;20203;-81
2021/03/21 12:16:45;;;;;;;5.07;4.40;;;;;;;2.28;75.27;99348.03;5013667;28;20282;-80
2021/03/21 12:19:54;;;;;;;5.03;4.53;;;;;;;2.59;75.86;99362.06;5025234;28;20249;-80
2021/03/21 12:23:21;;;;;;;6.90;5.50;;;;;;;2.58;76.56;99355.09;5000499;28;20211;-81
2021/03/21 12:26:52;;;;;;;7.43;5.43;;;;;;;2.63;77.53;99349.28;5016964;28;20230;-80
2021/03/21 12:30:19;;;;;;;6.93;5.47;;;;;;;2.51;75.55;99334.84;5047205;22;20229;-81
2021/03/21 12:33:40;;;;;;;6.43;5.83;;;;;;;2.51;76.85;99342.78;5052990;28;20668;-79
2021/03/21 12:37:27;;;;;;;6.47;5.20;;;;;;;2.33;76.62;99299.91;5039180;23;20218;-80
2021/03/21 12:40:40;;;;;;;8.50;6.20;;;;;;;2.42;76.35;99320.84;5100311;23;20201;-80
2021/03/21 12:44:34;;;;;;;10.13;6.77;;;;;;;2.43;77.78;99314.53;5051028;23;20260;-80
2021/03/21 12:48:01;;;;;;;8.57;6.50;;;;;;;2.24;78.43;99314.19;5035239;23;20233;-80
2021/03/21 12:51:33;;;;;;;7.27;5.23;;;;;;;2.21;79.59;99323.28;5012887;28;20222;-79
2021/03/21 12:55:15;;;;;;;7.90;6.43;;;;;;;2.12;79.30;99317.22;5035336;23;20248;-81
2021/03/21 12:58:50;;;;;;;8.50;5.87;;;;;;;1.88;80.50;99317.31;5049032;23;20227;-80
2021/03/21 13:02:30;;;;;;;6.43;5.07;;;;;;;1.99;79.54;99318.75;5011627;28;20214;-80
2021/03/21 13:05:51;;;;;;;6.70;5.63;;;;;;;2.02;79.30;99310.47;5022182;28;20222;-81
2021/03/21 13:09:08;;;;;;;6.97;5.80;;;;;;;2.00;79.22;99288.72;5027598;28;20191;-80
2021/03/21 13:12:04;;;;;;;6.70;5.40;;;;;;;2.02;79.40;99271.66;5014116;28;20436;-80
2021/03/21 13:14:43;;;;;;;6.47;4.93;;;;;;;1.93;79.00;99270.06;5028630;28;20282;-80
2021/03/21 13:17:49;;;;;;;7.10;5.87;;;;;;;1.90;79.51;99281.00;5069108;22;20217;-81
2021/03/21 13:20:58;;;;;;;7.90;5.50;;;;;;;1.18;80.91;99194.97;5048696;23;20240;-80
2021/03/21 13:24:14;;;;;;;7.00;5.43;;;;;;;1.65;82.15;99272.34;5051927;28;20222;-80
2021/03/21 13:27:54;;;;;;;7.80;5.10;;;;;;;1.69;82.62;99271.00;5056596;22;20228;-80
2021/03/21 13:31:17;;;;;;;6.90;5.13;;;;;;;1.63;82.30;99258.47;5034339;28;20206;-80
2021/03/21 13:34:37;;;;;;;6.73;4.90;;;;;;;1.59;79.41;99237.88;5038362;23;20223;-82
2021/03/21 13:41:49;;;;;;;6.53;3.77;;;;;;;1.79;70.32;99233.81;5014508;28;20231;-80
2021/03/21 13:45:14;;;;;;;5.17;3.77;;;;;;;1.77;69.36;99204.94;5052898;22;20206;-81
2021/03/21 13:48:37;;;;;;;8.00;4.47;;;;;;;1.95;69.56;99244.31;5070518;23;20241;-82
2021/03/21 13:56:20;;;;;;;5.50;4.20;;;;;;;2.10;67.27;99229.34;5042683;23;20218;-81
2021/03/21 14:00:19;;;;;;;4.90;3.20;;;;;;;2.21;65.97;99236.03;5059254;23;20214;-82
2021/03/21 14:03:53;;;;;;;4.27;3.70;;;;;;;2.25;66.28;99223.28;5025494;28;20201;-82
2021/03/21 14:07:28;;;;;;;4.60;3.80;;;;;;;2.38;66.00;99221.69;5037402;23;20227;-80
2021/03/21 14:11:01;;;;;;;4.63;3.60;;;;;;;2.39;65.83;99209.31;5019192;28;20205;-80
2021/03/21 14:14:03;;;;;;;5.47;4.00;;;;;;;2.42;66.22;99201.88;5055109;23;20230;-81
2021/03/21 14:17:43;;;;;;;4.53;3.50;;;;;;;2.39;65.84;99204.84;5195535;23;20265;-79
2021/03/21 14:21:52;;;;;;;4.87;3.50;;;;;;;2.32;65.62;99201.28;4996908;23;20235;-81
2021/03/21 14:25:46;;;;;;;4.03;3.40;;;;;;;2.27;66.67;99198.34;5033608;28;20206;-80
2021/03/21 14:28:38;;;;;;;5.00;3.60;;;;;;;2.15;66.59;99199.72;5002916;22;20225;-81
2021/03/21 14:32:10;;;;;;;6.07;3.80;;;;;;;1.91;65.63;99153.19;5056728;23;20284;-80
2021/03/21 14:35:14;;;;;;;5.13;4.13;;;;;;;1.98;66.12;99163.88;5063297;23;20252;-80
2021/03/21 14:38:29;;;;;;;5.30;3.80;;;;;;;1.78;66.62;99132.63;5054431;28;20225;-80
2021/03/21 14:41:37;;;;;;;4.87;3.43;;;;;;;2.10;67.08;99176.47;5031657;28;20226;-80
2021/03/21 14:44:40;;;;;;;4.93;3.90;;;;;;;2.16;66.69;99180.25;5040287;28;20205;-80
2021/03/21 14:47:52;;;;;;;6.13;3.70;;;;;;;2.03;67.68;99133.28;5161520;23;20248;-80
2021/03/21 14:51:36;;;;;;;5.03;3.93;;;;;;;2.13;65.73;99157.66;4998122;23;20222;-80
2021/03/21 14:54:39;;;;;;;4.73;3.70;;;;;;;2.19;65.13;99143.69;5055916;23;20219;-80
2021/03/21 14:57:23;;;;;;;5.13;3.77;;;;;;;2.21;66.97;99147.00;5041149;23;20222;-80
2021/03/21 15:00:37;;;;;;;4.60;3.83;;;;;;;2.25;66.08;99144.00;5032555;28;20219;-80
2021/03/21 15:03:53;;;;;;;7.03;4.00;;;;;;;2.28;65.77;99144.47;5044372;23;20233;-80
2021/03/21 15:07:38;;;;;;;4.90;3.90;;;;;;;2.05;64.79;99112.75;5070432;23;20182;-80
2021/03/21 15:10:17;;;;;;;5.17;4.13;;;;;;;2.28;65.39;99147.13;5019993;23;20654;-80
2021/03/21 15:13:24;;;;;;;4.80;3.83;;;;;;;2.23;65.67;99133.63;4983253;23;20245;-80
2021/03/21 15:16:37;;;;;;;5.23;4.30;;;;;;;2.27;65.78;99132.25;5000499;28;20211;-80
2021/03/21 15:19:33;;;;;;;4.53;4.10;;;;;;;2.21;66.21;99123.22;5012708;28;20226;-80
2021/03/21 15:22:57;;;;;;;5.40;3.90;;;;;;;2.27;64.63;99131.44;5096646;23;20262;-80
2021/03/21 15:26:03;;;;;;;4.67;3.80;;;;;;;2.13;64.66;99107.44;5011695;23;20243;-80
2021/03/21 15:29:06;;;;;;;4.87;3.60;;;;;;;2.16;65.83;99115.00;4974267;28;20541;-79
2021/03/21 15:32:00;;;;;;;4.23;3.73;;;;;;;2.15;65.35;99129.19;4973742;28;20215;-80
2021/03/21 15:34:58;;;;;;;5.53;4.03;;;;;;;2.01;65.65;99097.44;4973439;29;20236;-80
2021/03/21 15:38:30;;;;;;;4.00;3.50;;;;;;;2.06;64.71;99109.13;4974845;28;20709;-80
2021/03/21 15:41:38;;;;;;;3.60;3.30;;;;;;;2.09;65.42;99113.25;4985230;28;20639;-80
2021/03/21 15:44:49;;;;;;;3.93;3.33;;;;;;;1.97;64.96;99091.69;4948795;28;20232;-80
2021/03/21 15:48:22;;;;;;;4.33;3.43;;;;;;;2.00;65.20;99114.31;4990906;28;20261;-79
2021/03/21 15:51:50;;;;;;;3.77;3.33;;;;;;;1.94;65.43;99109.75;5039639;23;20257;-80
2021/03/21 15:55:18;;;;;;;4.07;3.27;;;;;;;1.80;64.97;99068.25;5053882;23;20231;-79
2021/03/21 15:59:13;;;;;;;4.27;3.13;;;;;;;1.88;64.72;99094.59;5030968;23;20262;-80
2021/03/21 16:02:48;;;;;;;5.70;3.70;;;;;;;1.82;65.87;99092.66;5032636;23;20346;-79
2021/03/21 16:06:18;;;;;;;4.67;3.53;;;;;;;1.76;66.75;99079.16;5028860;23;20232;-79
2021/03/21 16:09:19;;;;;;;5.10;3.80;;;;;;;1.65;66.30;99071.66;5043937;23;20277;-79
2021/03/21 16:13:16;;;;;;;3.83;3.03;;;;;;;1.66;68.00;99088.31;5045087;23;20274;-79
2021/03/21 16:16:58;;;;;;;4.50;3.47;;;;;;;1.59;68.13;99085.53;5009237;23;20230;-80
2021/03/21 16:20:10;;;;;;;4.33;3.77;;;;;;;1.49;68.13;99078.88;5032058;28;20210;-79
2021/03/21 16:23:34;;;;;;;4.30;3.50;;;;;;;1.46;69.74;99080.03;5024564;23;20219;-80